sensor_id;sensor_type;location;lat;lon;timestamp;temperature;humidity
5382;DHT22;2714;49.852;6.564;2023-03-24T00:01:05;11.50;99.90
5382;DHT22;2714;49.852;6.564;2023-03-24T00:05:08;11.50;99.90
5382;DHT22;2714;49.852;6.564;2023-03-24T00:09:10;11.60;99.90
5382;DHT22;2714;49.852;6.564;2023-03-24T00:13:11;11.60;99.90
5382;DHT22;2714;49.852;6.564;2023-03-24T00:17:11;11.60;99.90
5382;DHT22;2714;49.852;6.564;2023-03-24T00:21:13;11.50;99.90
5382;DHT22;2714;49.852;6.564;2023-03-24T00:25:19;11.60;99.90
5382;DHT22;2714;49.852;6.564;2023-03-24T00:29:23;11.70;99.90
5382;DHT22;2714;49.852;6.564;2023-03-24T00:33:24;11.60;99.90
5382;DHT22;2714;49.852;6.564;2023-03-24T00:37:25;11.70;99.90
5382;DHT22;2714;49.852;6.564;2023-03-24T00:41:26;11.70;99.90
5382;DHT22;2714;49.852;6.564;2023-03-24T00:45:28;11.70;99.90
5382;DHT22;2714;49.852;6.564;2023-03-24T00:49:33;11.80;99.90
5382;DHT22;2714;49.852;6.564;2023-03-24T00:53:47;11.80;99.90
5382;DHT22;2714;49.852;6.564;2023-03-24T00:57:48;11.80;99.90
5382;DHT22;2714;49.852;6.564;2023-03-24T01:01:51;11.80;99.90
5382;DHT22;2714;49.852;6.564;2023-03-24T01:05:59;11.80;99.90
5382;DHT22;2714;49.852;6.564;2023-03-24T01:10:01;11.80;99.90
5382;DHT22;2714;49.852;6.564;2023-03-24T01:14:02;11.70;99.90
5382;DHT22;2714;49.852;6.564;2023-03-24T01:18:03;11.80;99.90
5382;DHT22;2714;49.852;6.564;2023-03-24T01:22:04;11.80;99.90
5382;DHT22;2714;49.852;6.564;2023-03-24T01:26:06;11.70;99.90
5382;DHT22;2714;49.852;6.564;2023-03-24T01:30:07;11.80;99.90
5382;DHT22;2714;49.852;6.564;2023-03-24T01:34:08;11.80;99.90
5382;DHT22;2714;49.852;6.564;2023-03-24T01:38:11;11.90;99.90
5382;DHT22;2714;49.852;6.564;2023-03-24T01:42:19;11.90;99.90
5382;DHT22;2714;49.852;6.564;2023-03-24T01:46:21;11.80;99.90
5382;DHT22;2714;49.852;6.564;2023-03-24T01:50:23;11.90;99.90
5382;DHT22;2714;49.852;6.564;2023-03-24T01:54:36;12.00;99.90
5382;DHT22;2714;49.852;6.564;2023-03-24T01:58:42;12.00;99.90
5382;DHT22;2714;49.852;6.564;2023-03-24T02:02:48;12.00;99.90
5382;DHT22;2714;49.852;6.564;2023-03-24T02:06:54;12.00;99.90
5382;DHT22;2714;49.852;6.564;2023-03-24T02:10:55;11.90;99.90
5382;DHT22;2714;49.852;6.564;2023-03-24T02:14:56;12.00;99.90
5382;DHT22;2714;49.852;6.564;2023-03-24T02:41:22;11.90;99.90
5382;DHT22;2714;49.852;6.564;2023-03-24T02:45:59;11.90;99.90
5382;DHT22;2714;49.852;6.564;2023-03-24T02:54:40;11.70;99.90
5382;DHT22;2714;49.852;6.564;2023-03-24T02:58:51;11.70;99.90
5382;DHT22;2714;49.852;6.564;2023-03-24T03:03:27;11.70;99.90
5382;DHT22;2714;49.852;6.564;2023-03-24T03:07:31;11.70;99.90
5382;DHT22;2714;49.852;6.564;2023-03-24T03:11:33;11.70;99.90
5382;DHT22;2714;49.852;6.564;2023-03-24T03:15:45;11.60;99.90
5382;DHT22;2714;49.852;6.564;2023-03-24T03:19:57;11.60;99.90
5382;DHT22;2714;49.852;6.564;2023-03-24T03:24:02;11.60;99.90
5382;DHT22;2714;49.852;6.564;2023-03-24T03:28:05;11.70;99.90
5382;DHT22;2714;49.852;6.564;2023-03-24T03:32:09;11.70;99.90
5382;DHT22;2714;49.852;6.564;2023-03-24T03:36:46;11.70;99.90
5382;DHT22;2714;49.852;6.564;2023-03-24T03:40:53;11.80;99.90
5382;DHT22;2714;49.852;6.564;2023-03-24T03:44:55;11.70;99.90
5382;DHT22;2714;49.852;6.564;2023-03-24T03:48:58;11.80;99.90
5382;DHT22;2714;49.852;6.564;2023-03-24T03:52:59;11.80;99.90
5382;DHT22;2714;49.852;6.564;2023-03-24T03:57:00;11.80;99.90
5382;DHT22;2714;49.852;6.564;2023-03-24T04:01:02;11.80;99.90
5382;DHT22;2714;49.852;6.564;2023-03-24T04:09:51;11.90;99.90
5382;DHT22;2714;49.852;6.564;2023-03-24T04:27:22;11.90;99.90
5382;DHT22;2714;49.852;6.564;2023-03-24T04:31:42;11.90;99.90
5382;DHT22;2714;49.852;6.564;2023-03-24T04:35:48;11.90;99.90
5382;DHT22;2714;49.852;6.564;2023-03-24T04:39:52;11.90;99.90
5382;DHT22;2714;49.852;6.564;2023-03-24T04:43:57;11.90;99.90
5382;DHT22;2714;49.852;6.564;2023-03-24T04:48:01;11.90;99.90
5382;DHT22;2714;49.852;6.564;2023-03-24T04:52:05;12.00;99.90
5382;DHT22;2714;49.852;6.564;2023-03-24T04:56:17;12.00;99.90
5382;DHT22;2714;49.852;6.564;2023-03-24T05:00:25;11.90;99.90
5382;DHT22;2714;49.852;6.564;2023-03-24T05:04:27;11.90;99.90
5382;DHT22;2714;49.852;6.564;2023-03-24T05:08:29;11.90;99.90
5382;DHT22;2714;49.852;6.564;2023-03-24T05:12:30;12.00;99.90
5382;DHT22;2714;49.852;6.564;2023-03-24T05:16:30;12.00;99.90
5382;DHT22;2714;49.852;6.564;2023-03-24T05:20:31;12.00;99.90
5382;DHT22;2714;49.852;6.564;2023-03-24T05:24:32;11.90;99.90
5382;DHT22;2714;49.852;6.564;2023-03-24T05:28:34;12.00;99.90
5382;DHT22;2714;49.852;6.564;2023-03-24T05:32:34;12.00;99.90
5382;DHT22;2714;49.852;6.564;2023-03-24T05:36:35;12.00;99.90
5382;DHT22;2714;49.852;6.564;2023-03-24T05:40:36;12.00;99.90
5382;DHT22;2714;49.852;6.564;2023-03-24T05:44:36;12.00;99.90
5382;DHT22;2714;49.852;6.564;2023-03-24T05:48:37;12.10;99.90
5382;DHT22;2714;49.852;6.564;2023-03-24T05:52:38;12.10;99.90
5382;DHT22;2714;49.852;6.564;2023-03-24T05:56:38;12.10;99.90
5382;DHT22;2714;49.852;6.564;2023-03-24T06:00:39;12.10;99.90
5382;DHT22;2714;49.852;6.564;2023-03-24T06:04:40;12.10;99.90
5382;DHT22;2714;49.852;6.564;2023-03-24T06:08:45;12.10;99.90
5382;DHT22;2714;49.852;6.564;2023-03-24T06:12:45;12.10;99.90
5382;DHT22;2714;49.852;6.564;2023-03-24T06:16:46;12.20;99.90
5382;DHT22;2714;49.852;6.564;2023-03-24T06:20:49;12.20;99.90
5382;DHT22;2714;49.852;6.564;2023-03-24T06:24:50;12.20;99.90
5382;DHT22;2714;49.852;6.564;2023-03-24T06:28:50;12.20;99.90
5382;DHT22;2714;49.852;6.564;2023-03-24T06:32:51;12.30;99.90
5382;DHT22;2714;49.852;6.564;2023-03-24T06:36:51;12.50;99.90
5382;DHT22;2714;49.852;6.564;2023-03-24T06:40:52;12.60;99.90
5382;DHT22;2714;49.852;6.564;2023-03-24T06:44:53;12.50;99.90
5382;DHT22;2714;49.852;6.564;2023-03-24T06:48:53;12.40;99.90
5382;DHT22;2714;49.852;6.564;2023-03-24T06:52:54;12.40;99.90
5382;DHT22;2714;49.852;6.564;2023-03-24T06:56:54;12.40;99.90
5382;DHT22;2714;49.852;6.564;2023-03-24T07:00:55;12.40;99.90
5382;DHT22;2714;49.852;6.564;2023-03-24T07:04:56;12.30;99.90
5382;DHT22;2714;49.852;6.564;2023-03-24T07:08:58;12.20;99.90
5382;DHT22;2714;49.852;6.564;2023-03-24T07:12:59;12.30;99.90
5382;DHT22;2714;49.852;6.564;2023-03-24T07:17:00;12.40;99.90
5382;DHT22;2714;49.852;6.564;2023-03-24T07:21:01;12.50;99.90
5382;DHT22;2714;49.852;6.564;2023-03-24T07:25:04;12.70;99.90
5382;DHT22;2714;49.852;6.564;2023-03-24T07:29:05;12.80;99.90
5382;DHT22;2714;49.852;6.564;2023-03-24T07:33:06;12.70;99.90
5382;DHT22;2714;49.852;6.564;2023-03-24T07:37:09;12.20;99.90
5382;DHT22;2714;49.852;6.564;2023-03-24T07:41:10;11.40;99.90
5382;DHT22;2714;49.852;6.564;2023-03-24T07:45:11;10.80;99.90
5382;DHT22;2714;49.852;6.564;2023-03-24T07:49:12;10.60;99.90
5382;DHT22;2714;49.852;6.564;2023-03-24T07:53:14;10.60;99.90
5382;DHT22;2714;49.852;6.564;2023-03-24T07:57:19;10.70;99.90
5382;DHT22;2714;49.852;6.564;2023-03-24T08:01:19;10.80;99.90
5382;DHT22;2714;49.852;6.564;2023-03-24T08:05:21;10.80;99.90
5382;DHT22;2714;49.852;6.564;2023-03-24T08:09:22;11.20;99.90
5382;DHT22;2714;49.852;6.564;2023-03-24T08:13:24;11.20;99.90
5382;DHT22;2714;49.852;6.564;2023-03-24T08:17:25;11.30;99.90
5382;DHT22;2714;49.852;6.564;2023-03-24T08:21:26;11.20;99.90
5382;DHT22;2714;49.852;6.564;2023-03-24T08:25:26;11.10;99.90
5382;DHT22;2714;49.852;6.564;2023-03-24T08:29:27;11.20;99.90
5382;DHT22;2714;49.852;6.564;2023-03-24T08:33:27;11.20;99.90
5382;DHT22;2714;49.852;6.564;2023-03-24T08:37:28;11.00;99.90
5382;DHT22;2714;49.852;6.564;2023-03-24T08:41:28;11.00;99.90
5382;DHT22;2714;49.852;6.564;2023-03-24T08:45:34;11.10;99.90
5382;DHT22;2714;49.852;6.564;2023-03-24T08:49:35;11.20;99.90
5382;DHT22;2714;49.852;6.564;2023-03-24T08:53:36;11.20;99.90
5382;DHT22;2714;49.852;6.564;2023-03-24T08:57:37;11.30;99.90
5382;DHT22;2714;49.852;6.564;2023-03-24T09:01:37;11.50;99.90
5382;DHT22;2714;49.852;6.564;2023-03-24T09:05:38;11.60;99.90
5382;DHT22;2714;49.852;6.564;2023-03-24T09:09:39;11.40;99.90
5382;DHT22;2714;49.852;6.564;2023-03-24T09:13:39;11.50;99.90
5382;DHT22;2714;49.852;6.564;2023-03-24T09:17:40;11.50;99.90
5382;DHT22;2714;49.852;6.564;2023-03-24T09:21:43;11.60;99.90
5382;DHT22;2714;49.852;6.564;2023-03-24T09:25:46;11.70;99.90
5382;DHT22;2714;49.852;6.564;2023-03-24T09:29:47;12.10;99.90
5382;DHT22;2714;49.852;6.564;2023-03-24T09:33:47;12.20;99.90
5382;DHT22;2714;49.852;6.564;2023-03-24T09:37:48;12.30;99.90
5382;DHT22;2714;49.852;6.564;2023-03-24T09:41:49;14.20;99.90
5382;DHT22;2714;49.852;6.564;2023-03-24T09:45:55;16.60;99.90
5382;DHT22;2714;49.852;6.564;2023-03-24T09:50:01;16.60;99.90
5382;DHT22;2714;49.852;6.564;2023-03-24T09:54:21;15.80;99.90
5382;DHT22;2714;49.852;6.564;2023-03-24T09:58:28;15.00;99.90
5382;DHT22;2714;49.852;6.564;2023-03-24T10:02:30;16.60;99.90
5382;DHT22;2714;49.852;6.564;2023-03-24T10:06:38;18.60;99.90
5382;DHT22;2714;49.852;6.564;2023-03-24T10:23:32;20.30;99.90
5382;DHT22;2714;49.852;6.564;2023-03-24T10:27:43;22.00;99.90
5382;DHT22;2714;49.852;6.564;2023-03-24T10:31:49;22.60;99.90
5382;DHT22;2714;49.852;6.564;2023-03-24T10:36:01;23.30;99.90
5382;DHT22;2714;49.852;6.564;2023-03-24T10:40:13;23.00;99.90
5382;DHT22;2714;49.852;6.564;2023-03-24T10:44:15;23.00;99.90
5382;DHT22;2714;49.852;6.564;2023-03-24T10:52:46;24.40;97.50
5382;DHT22;2714;49.852;6.564;2023-03-24T11:01:25;25.10;93.40
5382;DHT22;2714;49.852;6.564;2023-03-24T11:05:29;23.80;92.60
5382;DHT22;2714;49.852;6.564;2023-03-24T11:09:41;23.50;92.70
5382;DHT22;2714;49.852;6.564;2023-03-24T11:13:53;23.70;91.00
5382;DHT22;2714;49.852;6.564;2023-03-24T11:18:06;24.50;89.70
5382;DHT22;2714;49.852;6.564;2023-03-24T11:22:10;24.00;86.00
5382;DHT22;2714;49.852;6.564;2023-03-24T11:26:17;24.00;91.30
5382;DHT22;2714;49.852;6.564;2023-03-24T11:30:18;24.80;90.10
5382;DHT22;2714;49.852;6.564;2023-03-24T11:35:06;24.70;86.00
5382;DHT22;2714;49.852;6.564;2023-03-24T11:38:58;21.70;88.40
5382;DHT22;2714;49.852;6.564;2023-03-24T11:43:00;20.10;91.80
5382;DHT22;2714;49.852;6.564;2023-03-24T11:47:29;20.30;92.40
5382;DHT22;2714;49.852;6.564;2023-03-24T11:51:37;19.50;92.00
5382;DHT22;2714;49.852;6.564;2023-03-24T11:55:43;18.80;94.30
5382;DHT22;2714;49.852;6.564;2023-03-24T12:00:03;18.00;96.00
5382;DHT22;2714;49.852;6.564;2023-03-24T12:04:27;17.40;96.40
5382;DHT22;2714;49.852;6.564;2023-03-24T12:08:40;17.60;97.10
5382;DHT22;2714;49.852;6.564;2023-03-24T12:17:25;19.00;96.20
5382;DHT22;2714;49.852;6.564;2023-03-24T12:26:02;21.20;92.80
5382;DHT22;2714;49.852;6.564;2023-03-24T12:30:19;19.30;94.30
5382;DHT22;2714;49.852;6.564;2023-03-24T12:34:52;18.40;96.70
5382;DHT22;2714;49.852;6.564;2023-03-24T12:39:07;18.40;95.40
5382;DHT22;2714;49.852;6.564;2023-03-24T12:56:32;17.80;99.90
5382;DHT22;2714;49.852;6.564;2023-03-24T13:00:55;17.50;99.90
5382;DHT22;2714;49.852;6.564;2023-03-24T13:05:01;17.30;99.90
5382;DHT22;2714;49.852;6.564;2023-03-24T13:09:24;17.60;99.90
5382;DHT22;2714;49.852;6.564;2023-03-24T13:13:39;17.50;99.90
5382;DHT22;2714;49.852;6.564;2023-03-24T13:22:17;18.20;99.50
5382;DHT22;2714;49.852;6.564;2023-03-24T13:26:38;17.60;98.10
5382;DHT22;2714;49.852;6.564;2023-03-24T13:30:40;17.00;98.10
5382;DHT22;2714;49.852;6.564;2023-03-24T13:34:47;16.90;99.80
5382;DHT22;2714;49.852;6.564;2023-03-24T13:38:52;16.60;99.90
5382;DHT22;2714;49.852;6.564;2023-03-24T13:42:58;16.90;99.90
5382;DHT22;2714;49.852;6.564;2023-03-24T13:47:17;16.80;99.50
5382;DHT22;2714;49.852;6.564;2023-03-24T13:51:27;16.90;99.90
5382;DHT22;2714;49.852;6.564;2023-03-24T13:55:34;17.00;99.70
5382;DHT22;2714;49.852;6.564;2023-03-24T13:59:41;16.70;98.30
5382;DHT22;2714;49.852;6.564;2023-03-24T14:08:34;16.00;99.90
5382;DHT22;2714;49.852;6.564;2023-03-24T14:21:08;16.00;99.90
5382;DHT22;2714;49.852;6.564;2023-03-24T14:29:46;15.70;99.90
5382;DHT22;2714;49.852;6.564;2023-03-24T14:37:57;15.50;99.90
5382;DHT22;2714;49.852;6.564;2023-03-24T14:41:59;15.40;99.90
5382;DHT22;2714;49.852;6.564;2023-03-24T14:46:02;15.40;99.90
5382;DHT22;2714;49.852;6.564;2023-03-24T14:50:19;15.40;99.90
5382;DHT22;2714;49.852;6.564;2023-03-24T14:54:28;15.40;99.90
5382;DHT22;2714;49.852;6.564;2023-03-24T14:58:35;15.30;99.90
5382;DHT22;2714;49.852;6.564;2023-03-24T15:02:43;15.00;99.90
5382;DHT22;2714;49.852;6.564;2023-03-24T15:06:46;15.30;99.90
5382;DHT22;2714;49.852;6.564;2023-03-24T15:10:51;15.00;99.90
5382;DHT22;2714;49.852;6.564;2023-03-24T15:14:52;14.90;99.90
5382;DHT22;2714;49.852;6.564;2023-03-24T15:18:56;15.30;99.90
5382;DHT22;2714;49.852;6.564;2023-03-24T15:23:05;15.40;99.90
5382;DHT22;2714;49.852;6.564;2023-03-24T15:31:06;15.20;99.90
5382;DHT22;2714;49.852;6.564;2023-03-24T15:35:13;15.20;99.90
5382;DHT22;2714;49.852;6.564;2023-03-24T15:39:19;15.30;99.90
5382;DHT22;2714;49.852;6.564;2023-03-24T15:43:23;14.90;99.90
5382;DHT22;2714;49.852;6.564;2023-03-24T15:47:28;14.50;99.90
5382;DHT22;2714;49.852;6.564;2023-03-24T15:52:03;14.20;99.90
5382;DHT22;2714;49.852;6.564;2023-03-24T15:56:16;14.20;99.90
5382;DHT22;2714;49.852;6.564;2023-03-24T16:00:23;14.30;99.90
5382;DHT22;2714;49.852;6.564;2023-03-24T16:04:24;14.60;99.90
5382;DHT22;2714;49.852;6.564;2023-03-24T16:08:35;14.60;99.90
5382;DHT22;2714;49.852;6.564;2023-03-24T16:12:38;14.20;99.90
5382;DHT22;2714;49.852;6.564;2023-03-24T16:16:38;14.10;99.90
5382;DHT22;2714;49.852;6.564;2023-03-24T16:20:41;13.70;99.90
5382;DHT22;2714;49.852;6.564;2023-03-24T16:24:41;13.70;99.90
5382;DHT22;2714;49.852;6.564;2023-03-24T16:28:42;13.80;99.90
5382;DHT22;2714;49.852;6.564;2023-03-24T16:32:44;13.80;99.90
5382;DHT22;2714;49.852;6.564;2023-03-24T16:36:46;13.60;99.90
5382;DHT22;2714;49.852;6.564;2023-03-24T16:40:49;13.30;99.90
5382;DHT22;2714;49.852;6.564;2023-03-24T16:44:50;13.20;99.90
5382;DHT22;2714;49.852;6.564;2023-03-24T16:48:51;13.30;99.90
5382;DHT22;2714;49.852;6.564;2023-03-24T16:52:52;13.30;99.90
5382;DHT22;2714;49.852;6.564;2023-03-24T16:56:53;13.10;99.90
5382;DHT22;2714;49.852;6.564;2023-03-24T17:00:53;13.00;99.90
5382;DHT22;2714;49.852;6.564;2023-03-24T17:04:56;13.10;99.90
5382;DHT22;2714;49.852;6.564;2023-03-24T17:08:58;13.20;99.90
5382;DHT22;2714;49.852;6.564;2023-03-24T17:12:59;13.10;99.90
5382;DHT22;2714;49.852;6.564;2023-03-24T17:17:01;13.20;99.90
5382;DHT22;2714;49.852;6.564;2023-03-24T17:21:05;13.20;99.90
5382;DHT22;2714;49.852;6.564;2023-03-24T17:25:11;13.20;99.90
5382;DHT22;2714;49.852;6.564;2023-03-24T17:29:12;13.20;99.90
5382;DHT22;2714;49.852;6.564;2023-03-24T17:33:13;13.10;99.90
5382;DHT22;2714;49.852;6.564;2023-03-24T17:37:14;13.00;99.90
5382;DHT22;2714;49.852;6.564;2023-03-24T17:41:15;12.80;99.90
5382;DHT22;2714;49.852;6.564;2023-03-24T17:45:17;12.70;99.90
5382;DHT22;2714;49.852;6.564;2023-03-24T17:49:18;12.70;99.90
5382;DHT22;2714;49.852;6.564;2023-03-24T17:53:19;12.70;99.90
5382;DHT22;2714;49.852;6.564;2023-03-24T17:57:25;12.70;99.90
5382;DHT22;2714;49.852;6.564;2023-03-24T18:01:25;12.70;99.90
5382;DHT22;2714;49.852;6.564;2023-03-24T18:05:28;12.70;99.90
5382;DHT22;2714;49.852;6.564;2023-03-24T18:09:32;12.60;99.90
5382;DHT22;2714;49.852;6.564;2023-03-24T18:13:33;12.60;99.90
5382;DHT22;2714;49.852;6.564;2023-03-24T18:17:34;12.50;99.90
5382;DHT22;2714;49.852;6.564;2023-03-24T18:21:35;12.30;99.90
5382;DHT22;2714;49.852;6.564;2023-03-24T18:25:36;12.20;99.90
5382;DHT22;2714;49.852;6.564;2023-03-24T18:29:37;12.10;99.90
5382;DHT22;2714;49.852;6.564;2023-03-24T18:33:38;11.90;99.90
5382;DHT22;2714;49.852;6.564;2023-03-24T18:37:38;11.70;99.90
5382;DHT22;2714;49.852;6.564;2023-03-24T18:41:39;11.60;99.90
5382;DHT22;2714;49.852;6.564;2023-03-24T18:45:40;11.60;99.90
5382;DHT22;2714;49.852;6.564;2023-03-24T18:49:40;11.50;99.90
5382;DHT22;2714;49.852;6.564;2023-03-24T18:53:41;11.40;99.90
5382;DHT22;2714;49.852;6.564;2023-03-24T18:57:41;11.40;99.90
5382;DHT22;2714;49.852;6.564;2023-03-24T19:01:42;11.40;99.90
5382;DHT22;2714;49.852;6.564;2023-03-24T19:05:47;11.40;99.90
5382;DHT22;2714;49.852;6.564;2023-03-24T19:09:49;11.40;99.90
5382;DHT22;2714;49.852;6.564;2023-03-24T19:13:50;11.40;99.90
5382;DHT22;2714;49.852;6.564;2023-03-24T19:17:51;11.40;99.90
5382;DHT22;2714;49.852;6.564;2023-03-24T19:21:51;11.40;99.90
5382;DHT22;2714;49.852;6.564;2023-03-24T19:25:52;11.30;99.90
5382;DHT22;2714;49.852;6.564;2023-03-24T19:29:54;11.10;99.90
5382;DHT22;2714;49.852;6.564;2023-03-24T19:33:54;10.90;99.90
5382;DHT22;2714;49.852;6.564;2023-03-24T19:37:56;10.60;99.90
5382;DHT22;2714;49.852;6.564;2023-03-24T19:41:58;10.20;99.90
5382;DHT22;2714;49.852;6.564;2023-03-24T19:45:59;9.70;99.90
5382;DHT22;2714;49.852;6.564;2023-03-24T19:50:00;9.50;99.90
5382;DHT22;2714;49.852;6.564;2023-03-24T19:54:01;9.30;99.90
5382;DHT22;2714;49.852;6.564;2023-03-24T19:58:02;9.00;99.90
5382;DHT22;2714;49.852;6.564;2023-03-24T20:02:03;9.10;99.90
5382;DHT22;2714;49.852;6.564;2023-03-24T20:06:04;9.00;99.90
5382;DHT22;2714;49.852;6.564;2023-03-24T20:10:07;9.00;99.90
5382;DHT22;2714;49.852;6.564;2023-03-24T20:14:08;8.90;99.90
5382;DHT22;2714;49.852;6.564;2023-03-24T20:18:09;8.90;99.90
5382;DHT22;2714;49.852;6.564;2023-03-24T20:22:10;8.70;99.90
5382;DHT22;2714;49.852;6.564;2023-03-24T20:26:10;8.70;99.90
5382;DHT22;2714;49.852;6.564;2023-03-24T20:30:14;8.70;99.90
5382;DHT22;2714;49.852;6.564;2023-03-24T20:34:14;8.60;99.90
5382;DHT22;2714;49.852;6.564;2023-03-24T20:38:16;8.70;99.90
5382;DHT22;2714;49.852;6.564;2023-03-24T20:42:17;8.60;99.90
5382;DHT22;2714;49.852;6.564;2023-03-24T20:46:20;8.70;99.90
5382;DHT22;2714;49.852;6.564;2023-03-24T20:50:21;8.70;99.90
5382;DHT22;2714;49.852;6.564;2023-03-24T20:54:21;8.50;99.90
5382;DHT22;2714;49.852;6.564;2023-03-24T20:58:22;8.50;99.90
5382;DHT22;2714;49.852;6.564;2023-03-24T21:02:23;8.50;99.90
5382;DHT22;2714;49.852;6.564;2023-03-24T21:06:26;8.50;99.90
5382;DHT22;2714;49.852;6.564;2023-03-24T21:10:27;8.40;99.90
5382;DHT22;2714;49.852;6.564;2023-03-24T21:14:28;8.40;99.90
5382;DHT22;2714;49.852;6.564;2023-03-24T21:18:29;8.40;99.90
5382;DHT22;2714;49.852;6.564;2023-03-24T21:22:31;8.40;99.90
5382;DHT22;2714;49.852;6.564;2023-03-24T21:26:46;8.60;99.90
5382;DHT22;2714;49.852;6.564;2023-03-24T21:30:48;8.50;99.90
5382;DHT22;2714;49.852;6.564;2023-03-24T21:34:49;8.30;99.90
5382;DHT22;2714;49.852;6.564;2023-03-24T21:38:50;8.20;99.90
5382;DHT22;2714;49.852;6.564;2023-03-24T21:42:53;8.10;99.90
5382;DHT22;2714;49.852;6.564;2023-03-24T21:46:53;8.10;99.90
5382;DHT22;2714;49.852;6.564;2023-03-24T21:50:54;8.10;99.90
5382;DHT22;2714;49.852;6.564;2023-03-24T21:54:55;8.10;99.90
5382;DHT22;2714;49.852;6.564;2023-03-24T21:59:00;8.10;99.90
5382;DHT22;2714;49.852;6.564;2023-03-24T22:03:00;8.10;99.90
5382;DHT22;2714;49.852;6.564;2023-03-24T22:07:03;8.00;99.90
5382;DHT22;2714;49.852;6.564;2023-03-24T22:11:06;8.00;99.90
5382;DHT22;2714;49.852;6.564;2023-03-24T22:15:07;8.00;99.90
5382;DHT22;2714;49.852;6.564;2023-03-24T22:19:11;8.00;99.90
5382;DHT22;2714;49.852;6.564;2023-03-24T22:23:11;7.80;99.90
5382;DHT22;2714;49.852;6.564;2023-03-24T22:27:12;7.70;99.90
5382;DHT22;2714;49.852;6.564;2023-03-24T22:31:14;7.60;99.90
5382;DHT22;2714;49.852;6.564;2023-03-24T22:35:15;7.50;99.90
5382;DHT22;2714;49.852;6.564;2023-03-24T22:39:16;7.70;99.90
5382;DHT22;2714;49.852;6.564;2023-03-24T22:43:17;7.80;99.90
5382;DHT22;2714;49.852;6.564;2023-03-24T22:47:17;7.80;99.90
5382;DHT22;2714;49.852;6.564;2023-03-24T22:51:18;7.70;99.90
5382;DHT22;2714;49.852;6.564;2023-03-24T22:55:18;7.70;99.90
5382;DHT22;2714;49.852;6.564;2023-03-24T22:59:19;7.60;99.90
5382;DHT22;2714;49.852;6.564;2023-03-24T23:03:20;7.60;99.90
5382;DHT22;2714;49.852;6.564;2023-03-24T23:07:21;7.60;99.90
5382;DHT22;2714;49.852;6.564;2023-03-24T23:11:21;7.60;99.90
5382;DHT22;2714;49.852;6.564;2023-03-24T23:15:22;7.50;99.90
5382;DHT22;2714;49.852;6.564;2023-03-24T23:19:22;7.50;99.90
5382;DHT22;2714;49.852;6.564;2023-03-24T23:23:23;7.60;99.90
5382;DHT22;2714;49.852;6.564;2023-03-24T23:27:24;7.70;99.90
5382;DHT22;2714;49.852;6.564;2023-03-24T23:31:26;7.80;99.90
5382;DHT22;2714;49.852;6.564;2023-03-24T23:35:26;7.90;99.90
5382;DHT22;2714;49.852;6.564;2023-03-24T23:39:28;7.80;99.90
5382;DHT22;2714;49.852;6.564;2023-03-24T23:43:30;7.90;99.90
5382;DHT22;2714;49.852;6.564;2023-03-24T23:47:31;8.00;99.90
5382;DHT22;2714;49.852;6.564;2023-03-24T23:51:32;8.10;99.90
5382;DHT22;2714;49.852;6.564;2023-03-24T23:55:33;8.10;99.90
5382;DHT22;2714;49.852;6.564;2023-03-24T23:59:33;8.10;99.90
